Time;durP1;ratioP1;P1;durP2;ratioP2;P2;SDS_P1;SDS_P2;PMS_P1;PMS_P2;Temp;Humidity;BMP_temperature;BMP_pressure;BME280_temperature;BME280_humidity;BME280_pressure;Samples;Min_cycle;Max_cycle;Signal;HPM_P1;HPM_P2
2022/01/15 00:01:41;;;;;;;1.00;0.90;;;2.20;99.90;;;;;;4950338;28;20438;-90
2022/01/15 00:04:06;;;;;;;0.97;0.90;;;2.10;99.90;;;;;;4968140;28;20520;-90
2022/01/15 00:06:32;;;;;;;1.83;1.73;;;2.20;99.90;;;;;;4950528;28;20453;-90
2022/01/15 00:08:57;;;;;;;1.00;0.90;;;2.10;99.90;;;;;;4946957;28;20653;-90
2022/01/15 00:11:23;;;;;;;0.80;0.80;;;2.10;99.90;;;;;;4952425;28;20232;-89
2022/01/15 00:13:56;;;;;;;8.93;1.97;;;2.00;99.90;;;;;;4955483;28;20194;-89
2022/01/15 00:17:06;;;;;;;0.90;0.80;;;2.10;99.90;;;;;;4944848;28;20192;-90
2022/01/15 00:19:13;;;;;;;0.90;0.80;;;2.00;99.90;;;;;;4961492;28;20452;-90
2022/01/15 00:21:39;;;;;;;0.87;0.80;;;2.00;99.90;;;;;;4960031;28;20529;-90
2022/01/15 00:24:05;;;;;;;0.80;0.80;;;2.00;99.90;;;;;;4964355;28;20535;-89
2022/01/15 00:26:31;;;;;;;0.80;0.80;;;1.90;99.90;;;;;;4967572;28;20257;-88
2022/01/15 00:28:56;;;;;;;0.80;0.80;;;2.00;99.90;;;;;;4969345;28;20539;-90
2022/01/15 00:31:22;;;;;;;0.80;0.70;;;2.00;99.90;;;;;;4958815;28;20565;-90
2022/01/15 00:33:48;;;;;;;3.00;2.80;;;1.90;99.90;;;;;;4953867;28;20198;-90
2022/01/15 00:36:13;;;;;;;0.80;0.70;;;1.90;99.90;;;;;;4958215;28;20446;-90
2022/01/15 00:38:39;;;;;;;0.83;0.80;;;2.00;99.90;;;;;;4974317;28;20803;-89
2022/01/15 00:41:05;;;;;;;1.03;0.93;;;1.80;99.90;;;;;;4945480;28;20209;-90
2022/01/15 00:43:30;;;;;;;0.80;0.80;;;1.80;99.90;;;;;;4943322;28;20567;-90
2022/01/15 00:45:57;;;;;;;0.80;0.80;;;1.80;99.90;;;;;;4944275;28;20217;-90
2022/01/15 00:48:23;;;;;;;1.00;0.90;;;1.80;99.90;;;;;;4950166;28;20833;-90
2022/01/15 00:50:49;;;;;;;5.60;2.53;;;1.80;99.90;;;;;;4947830;28;20477;-90
2022/01/15 00:53:14;;;;;;;0.90;0.80;;;1.80;99.90;;;;;;4939041;28;20552;-90
2022/01/15 00:55:40;;;;;;;1.00;0.90;;;2.00;99.90;;;;;;4963927;28;20336;-90
2022/01/15 00:58:06;;;;;;;0.80;0.70;;;2.00;99.90;;;;;;4977287;28;20226;-90
2022/01/15 01:00:31;;;;;;;1.00;0.90;;;1.90;99.90;;;;;;4962569;28;20196;-90
2022/01/15 01:02:57;;;;;;;1.00;0.90;;;1.90;99.90;;;;;;4950109;28;20762;-89
2022/01/15 01:05:22;;;;;;;1.00;0.90;;;1.90;99.90;;;;;;4950843;28;20631;-89
2022/01/15 01:07:49;;;;;;;1.00;0.90;;;1.90;99.90;;;;;;4945891;28;20201;-90
2022/01/15 01:23:42;;;;;;;0.87;0.80;;;1.80;99.90;;;;;;4973492;28;21111;-89
2022/01/15 01:26:09;;;;;;;0.90;0.80;;;1.90;99.90;;;;;;4941921;28;20565;-90
2022/01/15 01:28:41;;;;;;;0.80;0.80;;;1.80;99.90;;;;;;4962853;28;20285;-90
2022/01/15 01:31:16;;;;;;;1.00;0.90;;;1.80;99.90;;;;;;4971509;28;20453;-90
2022/01/15 01:33:46;;;;;;;1.00;0.90;;;1.70;99.90;;;;;;4974759;28;20452;-90
2022/01/15 01:36:15;;;;;;;0.87;0.80;;;1.70;99.90;;;;;;4965298;28;20469;-90
2022/01/15 01:41:17;;;;;;;0.87;0.80;;;1.70;99.90;;;;;;4957915;28;20516;-90
2022/01/15 01:43:49;;;;;;;1.10;1.00;;;1.80;99.90;;;;;;4963181;28;20457;-90
2022/01/15 01:48:44;;;;;;;0.93;0.83;;;1.70;99.90;;;;;;4966213;28;20941;-90
2022/01/15 01:51:35;;;;;;;0.97;0.90;;;1.70;99.90;;;;;;4958283;28;20456;-90
2022/01/15 01:54:03;;;;;;;1.00;0.90;;;1.70;99.90;;;;;;4967081;28;20467;-90
2022/01/15 01:56:29;;;;;;;1.00;0.90;;;1.70;99.90;;;;;;4961123;28;20473;-91
2022/01/15 01:58:55;;;;;;;1.00;0.90;;;1.70;99.90;;;;;;4954176;28;20453;-90
2022/01/15 02:01:21;;;;;;;1.10;1.00;;;1.80;99.90;;;;;;4957437;28;20799;-90
2022/01/15 02:03:48;;;;;;;0.80;0.80;;;1.70;99.90;;;;;;4958560;28;20639;-90
2022/01/15 02:06:14;;;;;;;0.80;0.70;;;1.70;99.90;;;;;;4968331;28;20507;-90
2022/01/15 02:08:39;;;;;;;0.80;0.77;;;1.70;99.90;;;;;;4970198;28;20467;-89
2022/01/15 02:11:06;;;;;;;0.87;0.80;;;1.60;99.90;;;;;;4945788;28;20449;-91
2022/01/15 02:13:37;;;;;;;0.97;0.90;;;1.60;99.90;;;;;;4947744;28;20698;-90
2022/01/15 02:16:02;;;;;;;1.00;0.90;;;1.60;99.90;;;;;;4964167;28;20442;-89
2022/01/15 02:18:28;;;;;;;0.80;0.80;;;1.70;99.90;;;;;;4951311;28;20495;-89
2022/01/15 02:23:46;;;;;;;0.80;0.80;;;1.70;99.90;;;;;;4956397;28;20201;-90
2022/01/15 02:26:19;;;;;;;0.80;0.70;;;1.60;99.90;;;;;;4965384;28;20469;-90
2022/01/15 02:28:52;;;;;;;0.97;0.87;;;1.60;99.90;;;;;;4959918;28;20829;-90
2022/01/15 02:31:19;;;;;;;0.80;0.80;;;1.50;99.90;;;;;;4950425;28;20442;-89
2022/01/15 02:33:46;;;;;;;0.80;0.70;;;1.50;99.90;;;;;;4971145;28;20468;-91
2022/01/15 02:36:17;;;;;;;0.80;0.70;;;1.50;99.90;;;;;;4947979;28;20473;-90
2022/01/15 02:38:43;;;;;;;1.03;0.93;;;1.60;99.90;;;;;;4953328;28;20533;-90
2022/01/15 02:41:09;;;;;;;0.80;0.80;;;1.60;99.90;;;;;;4943058;28;20563;-89
2022/01/15 02:43:35;;;;;;;0.80;0.70;;;1.70;99.90;;;;;;4960607;28;20450;-90
2022/01/15 02:46:19;;;;;;;0.80;0.70;;;1.60;99.90;;;;;;4943258;28;20190;-90
2022/01/15 02:48:59;;;;;;;0.80;0.70;;;1.70;99.90;;;;;;4959895;28;20485;-90
2022/01/15 02:51:27;;;;;;;0.97;0.87;;;1.60;99.90;;;;;;4956753;28;20446;-90
2022/01/15 02:53:55;;;;;;;1.00;0.90;;;1.70;99.90;;;;;;4944852;28;20529;-89
2022/01/15 02:56:49;;;;;;;0.80;0.73;;;1.70;99.90;;;;;;4940220;28;20538;-90
2022/01/15 02:59:20;;;;;;;0.80;0.80;;;1.70;99.90;;;;;;4946715;28;20494;-90
2022/01/15 03:01:48;;;;;;;0.83;0.80;;;1.80;99.90;;;;;;4962208;28;20452;-90
2022/01/15 03:04:15;;;;;;;0.90;0.80;;;1.80;99.90;;;;;;4951524;28;20437;-89
2022/01/15 03:06:40;;;;;;;0.80;0.70;;;1.80;99.90;;;;;;4961622;28;20568;-91
2022/01/15 03:09:06;;;;;;;0.80;0.80;;;1.90;99.90;;;;;;4966807;28;20533;-90
2022/01/15 03:11:31;;;;;;;0.80;0.80;;;1.90;99.90;;;;;;4955427;28;20261;-90
2022/01/15 03:13:57;;;;;;;0.80;0.80;;;1.90;99.90;;;;;;4946986;28;20190;-90
2022/01/15 03:16:22;;;;;;;0.80;0.73;;;1.90;99.90;;;;;;4952391;28;20650;-90
2022/01/15 03:18:49;;;;;;;0.80;0.70;;;2.00;99.90;;;;;;4976407;28;20228;-90
2022/01/15 03:21:15;;;;;;;0.80;0.67;;;2.10;99.90;;;;;;4965924;28;20194;-90
2022/01/15 03:23:41;;;;;;;0.90;0.80;;;2.00;99.90;;;;;;4959193;28;20521;-90
2022/01/15 03:26:11;;;;;;;1.00;0.90;;;2.10;99.90;;;;;;4956721;28;20991;-90
2022/01/15 03:28:40;;;;;;;1.00;0.90;;;2.10;99.90;;;;;;4955872;28;20559;-89
2022/01/15 03:31:07;;;;;;;0.87;0.80;;;2.10;99.90;;;;;;4953100;28;21091;-90
2022/01/15 03:33:32;;;;;;;0.80;0.70;;;2.20;99.90;;;;;;4950651;28;21290;-89
2022/01/15 03:35:58;;;;;;;0.80;0.70;;;2.20;99.90;;;;;;4960540;28;20452;-90
2022/01/15 03:38:28;;;;;;;0.80;0.70;;;2.20;99.90;;;;;;4961146;28;20493;-91
2022/01/15 03:40:54;;;;;;;1.00;0.90;;;2.20;99.90;;;;;;4947867;28;20602;-90
2022/01/15 03:43:20;;;;;;;1.10;1.00;;;2.30;99.90;;;;;;4956554;28;20483;-90
2022/01/15 03:45:47;;;;;;;0.83;0.80;;;2.30;99.90;;;;;;4943893;28;20528;-91
2022/01/15 03:48:13;;;;;;;0.80;0.70;;;2.40;99.90;;;;;;4964388;28;20441;-89
2022/01/15 03:50:38;;;;;;;0.90;0.80;;;2.30;99.90;;;;;;4943778;28;20650;-90
2022/01/15 03:53:04;;;;;;;0.80;0.80;;;2.30;99.90;;;;;;4945488;28;20244;-90
2022/01/15 03:55:30;;;;;;;0.80;0.80;;;2.40;99.90;;;;;;4956145;28;20217;-90
2022/01/15 03:57:57;;;;;;;0.80;0.60;;;2.40;99.90;;;;;;4970325;28;20496;-90
2022/01/15 04:00:24;;;;;;;0.80;0.80;;;2.40;99.90;;;;;;4963401;28;20186;-89
2022/01/15 04:02:51;;;;;;;0.80;0.80;;;2.50;99.90;;;;;;4939775;28;20441;-89
2022/01/15 04:05:16;;;;;;;0.83;0.73;;;2.50;99.90;;;;;;4967118;28;20473;-91
2022/01/15 04:07:42;;;;;;;0.80;0.80;;;2.50;99.90;;;;;;4962723;28;20606;-90
2022/01/15 04:10:10;;;;;;;0.90;0.80;;;2.50;99.90;;;;;;4939062;28;20662;-91
2022/01/15 04:12:36;;;;;;;0.80;0.77;;;2.50;99.90;;;;;;4968444;28;20459;-90
2022/01/15 04:15:02;;;;;;;0.80;0.70;;;2.40;99.90;;;;;;4946857;28;20441;-89
2022/01/15 04:17:28;;;;;;;0.80;0.70;;;2.40;99.90;;;;;;4957308;28;20888;-89
2022/01/15 04:19:53;;;;;;;1.10;1.00;;;2.40;99.90;;;;;;4969056;28;20440;-90
2022/01/15 04:22:19;;;;;;;1.00;0.90;;;2.40;99.90;;;;;;4945852;28;20201;-90
2022/01/15 04:24:45;;;;;;;0.90;0.80;;;2.40;99.90;;;;;;4954222;28;20197;-90
2022/01/15 04:27:11;;;;;;;0.80;0.80;;;2.40;99.90;;;;;;4953356;28;20238;-91
2022/01/15 04:29:36;;;;;;;0.80;0.70;;;2.40;99.90;;;;;;4941516;28;20453;-89
2022/01/15 04:32:02;;;;;;;0.90;0.80;;;2.40;99.90;;;;;;4959315;28;20818;-90
2022/01/15 04:34:30;;;;;;;1.03;0.93;;;2.40;99.90;;;;;;4960834;28;20198;-90
2022/01/15 04:37:01;;;;;;;1.00;0.90;;;2.30;99.90;;;;;;4944227;28;20468;-89
2022/01/15 04:39:27;;;;;;;0.80;0.73;;;2.30;99.90;;;;;;4963220;28;20448;-89
2022/01/15 04:41:53;;;;;;;0.80;0.70;;;2.30;99.90;;;;;;4951564;28;20456;-89
2022/01/15 04:44:18;;;;;;;1.00;0.90;;;2.40;99.90;;;;;;4961354;28;20446;-90
2022/01/15 04:46:44;;;;;;;1.00;0.90;;;2.40;99.90;;;;;;4946499;28;20194;-91
2022/01/15 04:49:09;;;;;;;0.90;0.80;;;2.40;99.90;;;;;;4945154;28;20742;-91
2022/01/15 04:51:35;;;;;;;0.87;0.80;;;2.40;99.90;;;;;;4970066;28;20190;-90
2022/01/15 04:54:02;;;;;;;0.80;0.70;;;2.40;99.90;;;;;;4962485;28;20201;-89
2022/01/15 04:56:27;;;;;;;0.97;0.87;;;2.40;99.90;;;;;;4951807;28;20187;-90
2022/01/15 04:58:53;;;;;;;0.80;0.80;;;2.50;99.90;;;;;;4956675;28;20888;-90
2022/01/15 05:01:19;;;;;;;0.80;0.80;;;2.50;99.90;;;;;;4969691;28;20189;-90
2022/01/15 05:03:44;;;;;;;0.80;0.80;;;2.50;99.90;;;;;;4949071;28;20453;-89
2022/01/15 05:06:10;;;;;;;0.87;0.80;;;2.50;99.90;;;;;;4967771;28;20182;-90
2022/01/15 05:08:36;;;;;;;0.93;0.83;;;2.60;99.90;;;;;;4962020;28;20646;-91
2022/01/15 05:11:11;;;;;;;1.00;0.90;;;2.60;99.90;;;;;;4940627;28;20190;-90
2022/01/15 05:13:37;;;;;;;0.80;0.80;;;2.60;99.90;;;;;;4960709;28;20456;-90
2022/01/15 05:16:04;;;;;;;0.83;0.80;;;2.60;99.90;;;;;;4944018;28;20450;-90
2022/01/15 05:18:29;;;;;;;0.83;0.80;;;2.50;99.90;;;;;;4965620;28;20543;-89
2022/01/15 05:20:55;;;;;;;1.10;1.00;;;2.50;99.90;;;;;;4968103;28;20442;-91
2022/01/15 05:23:20;;;;;;;1.00;0.90;;;2.40;99.90;;;;;;4950409;28;20204;-91
2022/01/15 05:25:46;;;;;;;0.90;0.80;;;2.40;99.90;;;;;;4944612;28;20285;-91
2022/01/15 05:28:11;;;;;;;0.80;0.70;;;2.40;99.90;;;;;;4958791;28;20207;-90
2022/01/15 05:30:37;;;;;;;0.80;0.70;;;2.40;99.90;;;;;;4967779;28;20566;-91
2022/01/15 05:33:03;;;;;;;0.80;0.80;;;2.50;99.90;;;;;;4961817;28;20192;-90
2022/01/15 05:35:28;;;;;;;0.90;0.80;;;2.60;99.90;;;;;;4963042;28;20202;-90
2022/01/15 05:37:56;;;;;;;0.80;0.60;;;2.50;99.90;;;;;;4945685;28;20628;-90
2022/01/15 05:40:23;;;;;;;1.00;0.90;;;2.50;99.90;;;;;;4937940;28;20183;-89
2022/01/15 05:42:49;;;;;;;0.90;0.80;;;2.50;99.90;;;;;;4971929;28;20449;-90
2022/01/15 05:45:15;;;;;;;0.80;0.70;;;2.40;99.90;;;;;;4960186;28;20469;-89
2022/01/15 05:47:41;;;;;;;3.87;1.47;;;2.40;99.90;;;;;;4958066;28;20504;-91
2022/01/15 05:50:08;;;;;;;1.00;0.90;;;2.40;99.90;;;;;;4968980;28;20433;-90
2022/01/15 05:52:33;;;;;;;0.80;0.70;;;2.40;99.90;;;;;;4978164;28;20190;-89
2022/01/15 05:54:59;;;;;;;0.80;0.77;;;2.40;99.90;;;;;;4955501;28;20448;-89
2022/01/15 05:57:25;;;;;;;0.80;0.70;;;2.30;99.90;;;;;;4950764;28;20872;-90
2022/01/15 05:59:53;;;;;;;1.00;0.90;;;2.20;99.90;;;;;;4937405;28;20198;-91
2022/01/15 06:02:20;;;;;;;1.00;0.90;;;2.20;99.90;;;;;;4957317;28;21220;-90
2022/01/15 06:04:46;;;;;;;1.00;0.90;;;2.20;99.90;;;;;;4964614;28;20803;-90
2022/01/15 06:07:12;;;;;;;0.90;0.80;;;2.20;99.90;;;;;;4945361;28;21064;-90
2022/01/15 06:09:37;;;;;;;0.80;0.80;;;2.20;99.90;;;;;;4955906;28;20204;-90
2022/01/15 06:12:03;;;;;;;0.87;0.80;;;2.20;99.90;;;;;;4966128;28;20193;-90
2022/01/15 06:14:30;;;;;;;0.90;0.80;;;2.00;99.90;;;;;;4964731;28;20189;-88
2022/01/15 06:17:04;;;;;;;2.27;1.63;;;1.90;99.90;;;;;;4962183;28;20469;-91
2022/01/15 06:19:30;;;;;;;1.00;0.90;;;1.70;99.90;;;;;;4967136;28;20451;-92
2022/01/15 06:21:59;;;;;;;0.80;0.70;;;1.70;99.90;;;;;;4949486;28;20433;-90
2022/01/15 06:24:24;;;;;;;0.87;0.80;;;1.70;99.90;;;;;;4968418;28;20268;-90
2022/01/15 06:26:50;;;;;;;0.80;0.73;;;1.80;99.90;;;;;;4962333;28;21127;-90
2022/01/15 06:29:20;;;;;;;0.93;0.83;;;1.80;99.90;;;;;;4949209;28;20182;-92
2022/01/15 06:31:46;;;;;;;0.80;0.70;;;1.80;99.90;;;;;;4950416;28;20194;-91
2022/01/15 06:34:11;;;;;;;1.10;1.00;;;1.70;99.90;;;;;;4952933;28;20461;-91
2022/01/15 06:36:37;;;;;;;1.10;1.00;;;1.70;99.90;;;;;;4946764;28;20272;-90
2022/01/15 06:39:23;;;;;;;0.80;0.70;;;1.70;99.90;;;;;;4952036;28;20275;-89
2022/01/15 06:41:55;;;;;;;0.80;0.80;;;1.70;99.90;;;;;;4961885;28;20229;-91
2022/01/15 06:44:28;;;;;;;0.97;0.87;;;1.70;99.90;;;;;;4966390;28;20573;-90
2022/01/15 06:46:54;;;;;;;0.80;0.80;;;1.80;99.90;;;;;;4965823;28;20441;-90
2022/01/15 06:49:20;;;;;;;0.80;0.70;;;1.80;99.90;;;;;;4947564;28;20508;-90
2022/01/15 06:51:49;;;;;;;0.80;0.70;;;1.80;99.90;;;;;;4944674;28;20484;-90
2022/01/15 06:54:14;;;;;;;0.80;0.80;;;1.70;99.90;;;;;;4963645;28;20262;-90
2022/01/15 06:56:40;;;;;;;1.30;1.20;;;1.80;99.90;;;;;;4948156;28;22439;-90
2022/01/15 06:59:05;;;;;;;1.00;0.90;;;1.60;99.90;;;;;;4953794;28;20239;-90
2022/01/15 07:01:40;;;;;;;0.83;0.80;;;1.50;99.90;;;;;;4966944;28;20231;-90
2022/01/15 07:04:10;;;;;;;0.80;0.70;;;1.50;99.90;;;;;;4960773;28;20209;-91
2022/01/15 07:06:35;;;;;;;0.80;0.80;;;1.50;99.90;;;;;;4967623;28;21003;-91
2022/01/15 07:09:04;;;;;;;0.83;0.80;;;1.50;99.90;;;;;;4952945;28;20455;-90
2022/01/15 07:11:32;;;;;;;0.80;0.70;;;1.60;99.90;;;;;;4962413;28;20272;-91
2022/01/15 07:14:28;;;;;;;0.87;0.80;;;1.50;99.90;;;;;;4965438;28;20489;-90
2022/01/15 07:16:53;;;;;;;0.80;0.80;;;1.60;99.90;;;;;;4965520;28;20844;-89
2022/01/15 07:19:19;;;;;;;0.87;0.87;;;1.60;99.90;;;;;;4965928;28;20457;-88
2022/01/15 07:21:46;;;;;;;0.87;0.80;;;1.80;99.90;;;;;;4975514;28;20196;-90
2022/01/15 07:24:15;;;;;;;0.90;0.80;;;1.80;99.90;;;;;;4952340;28;20186;-91
2022/01/15 07:26:43;;;;;;;0.80;0.70;;;1.70;99.90;;;;;;4964974;28;20488;-92
2022/01/15 07:29:14;;;;;;;0.83;0.80;;;1.70;99.90;;;;;;4963913;28;20441;-90
2022/01/15 07:31:41;;;;;;;1.00;0.90;;;1.80;99.90;;;;;;4948673;28;20465;-90
2022/01/15 07:34:06;;;;;;;0.90;0.80;;;1.80;99.90;;;;;;4965800;28;20449;-90
2022/01/15 07:36:32;;;;;;;1.00;0.90;;;1.90;99.90;;;;;;4966969;28;20450;-90
2022/01/15 07:38:58;;;;;;;1.27;1.17;;;2.00;99.90;;;;;;4948581;28;20205;-91
2022/01/15 07:41:23;;;;;;;1.07;0.97;;;1.90;99.90;;;;;;4964349;28;20187;-89
2022/01/15 07:44:15;;;;;;;0.87;0.80;;;1.90;99.90;;;;;;4945664;28;20198;-91
2022/01/15 07:46:41;;;;;;;1.27;1.17;;;1.80;99.90;;;;;;4944175;28;20613;-88
2022/01/15 07:49:08;;;;;;;0.83;0.80;;;1.80;99.90;;;;;;4962202;28;21082;-91
2022/01/15 07:51:33;;;;;;;1.07;0.97;;;1.80;99.90;;;;;;4949353;28;20449;-89
2022/01/15 07:53:59;;;;;;;0.90;0.80;;;1.70;99.90;;;;;;4965949;28;20476;-90
2022/01/15 07:56:25;;;;;;;1.10;1.00;;;1.70;99.90;;;;;;4968974;28;20753;-90
2022/01/15 07:58:53;;;;;;;1.00;0.90;;;1.60;99.90;;;;;;4964613;28;20198;-89
2022/01/15 08:01:19;;;;;;;1.00;0.90;;;1.70;99.90;;;;;;4952489;28;20190;-88
2022/01/15 08:03:50;;;;;;;1.00;0.90;;;1.60;99.90;;;;;;4960398;28;20462;-89
2022/01/15 08:06:15;;;;;;;0.90;0.80;;;1.60;99.90;;;;;;4963093;28;20191;-89
2022/01/15 08:08:41;;;;;;;1.00;0.90;;;1.60;99.90;;;;;;4940702;28;20445;-88
2022/01/15 08:11:07;;;;;;;0.80;0.80;;;1.60;99.90;;;;;;4959988;28;20465;-89
2022/01/15 08:13:33;;;;;;;0.90;0.83;;;1.60;99.90;;;;;;4968917;28;20457;-90
2022/01/15 08:16:01;;;;;;;1.00;0.90;;;1.50;99.90;;;;;;4956950;28;20194;-89
2022/01/15 08:18:27;;;;;;;1.10;1.00;;;1.40;99.90;;;;;;4960867;28;20221;-89
2022/01/15 08:20:54;;;;;;;0.87;0.80;;;1.50;99.90;;;;;;4960029;28;20445;-89
2022/01/15 08:23:19;;;;;;;1.00;0.90;;;1.50;99.90;;;;;;4970955;28;20457;-90
2022/01/15 08:25:45;;;;;;;0.80;0.70;;;1.60;99.90;;;;;;4948573;28;20789;-86
2022/01/15 08:28:11;;;;;;;2.07;1.97;;;1.60;99.90;;;;;;4942712;28;20206;-88
2022/01/15 08:30:36;;;;;;;0.83;0.80;;;1.50;99.90;;;;;;4951916;28;20258;-87
2022/01/15 08:33:02;;;;;;;0.80;0.67;;;1.60;99.90;;;;;;4960304;28;20690;-88
2022/01/15 08:35:28;;;;;;;0.80;0.80;;;1.50;99.90;;;;;;4939348;28;20558;-88
2022/01/15 08:37:59;;;;;;;0.90;0.83;;;1.60;99.90;;;;;;4976426;28;20708;-88
2022/01/15 08:40:25;;;;;;;1.57;1.47;;;1.60;99.90;;;;;;4961197;28;20182;-88
2022/01/15 08:42:53;;;;;;;2.07;1.87;;;1.70;99.90;;;;;;4965126;28;21510;-89
2022/01/15 08:45:19;;;;;;;1.00;0.90;;;2.00;99.90;;;;;;4946319;28;20186;-90
2022/01/15 08:47:45;;;;;;;0.80;0.80;;;2.10;99.90;;;;;;4956368;28;20458;-89
2022/01/15 08:50:13;;;;;;;0.93;0.87;;;2.10;99.90;;;;;;4968703;28;22368;-89
2022/01/15 08:52:39;;;;;;;1.23;1.13;;;2.10;99.90;;;;;;4949123;28;20280;-90
2022/01/15 08:55:06;;;;;;;0.80;0.80;;;2.10;99.90;;;;;;4953697;28;20432;-90
2022/01/15 08:57:32;;;;;;;0.80;0.70;;;2.10;99.90;;;;;;4954027;28;20583;-90
2022/01/15 08:59:57;;;;;;;0.80;0.80;;;2.30;99.90;;;;;;4943611;28;20500;-90
2022/01/15 09:02:23;;;;;;;1.43;1.33;;;2.50;99.90;;;;;;4953823;28;20486;-89
2022/01/15 09:04:48;;;;;;;0.80;0.70;;;2.60;99.90;;;;;;4952869;28;20220;-90
2022/01/15 09:07:14;;;;;;;0.83;0.80;;;2.70;99.90;;;;;;4968471;28;20194;-88
2022/01/15 09:09:40;;;;;;;1.37;1.27;;;2.80;99.90;;;;;;4969203;28;20190;-90
2022/01/15 09:12:06;;;;;;;1.50;1.40;;;3.00;99.90;;;;;;4969908;28;20272;-92
2022/01/15 09:14:32;;;;;;;3.17;2.97;;;2.90;99.90;;;;;;4971851;28;20864;-90
2022/01/15 09:16:58;;;;;;;0.83;0.70;;;3.20;99.90;;;;;;4972407;28;20829;-92
2022/01/15 09:19:23;;;;;;;0.80;0.70;;;3.30;99.90;;;;;;4945669;28;20531;-91
2022/01/15 09:21:49;;;;;;;0.80;0.70;;;3.50;99.90;;;;;;4956103;28;20456;-89
2022/01/15 09:24:14;;;;;;;0.80;0.70;;;3.70;99.90;;;;;;4938046;28;20650;-90
2022/01/15 09:26:49;;;;;;;0.87;0.70;;;3.70;99.90;;;;;;4965875;28;20222;-90
2022/01/15 09:32:01;;;;;;;2.10;2.00;;;4.00;99.90;;;;;;4960974;28;20503;-90
2022/01/15 09:34:26;;;;;;;0.80;0.60;;;4.20;99.90;;;;;;4961803;28;20478;-90
2022/01/15 09:36:52;;;;;;;0.80;0.60;;;4.30;99.90;;;;;;4961887;28;20222;-90
2022/01/15 09:39:19;;;;;;;0.80;0.70;;;4.50;99.90;;;;;;4965223;28;20197;-90
2022/01/15 09:41:47;;;;;;;1.10;1.00;;;4.70;99.90;;;;;;4960825;28;20225;-89
2022/01/15 09:44:14;;;;;;;0.80;0.70;;;4.70;99.90;;;;;;4963984;28;20983;-90
2022/01/15 09:46:40;;;;;;;0.80;0.60;;;4.80;99.90;;;;;;4952896;28;20449;-90
2022/01/15 09:49:07;;;;;;;0.80;0.60;;;5.10;99.90;;;;;;4972530;28;20437;-90
2022/01/15 09:51:33;;;;;;;0.83;0.80;;;5.40;99.90;;;;;;4947069;28;20218;-90
2022/01/15 09:53:59;;;;;;;0.80;0.67;;;5.60;99.90;;;;;;4948498;28;20488;-92
2022/01/15 09:56:25;;;;;;;0.80;0.60;;;5.60;99.90;;;;;;4965114;28;20197;-92
2022/01/15 09:58:53;;;;;;;0.90;0.70;;;5.60;99.90;;;;;;4956519;28;20492;-92
2022/01/15 10:01:19;;;;;;;0.80;0.60;;;5.90;99.90;;;;;;4956430;28;20182;-89
2022/01/15 10:03:45;;;;;;;0.80;0.60;;;5.80;99.90;;;;;;4969820;28;20447;-91
2022/01/15 10:06:17;;;;;;;1.20;1.10;;;5.70;99.90;;;;;;4980392;28;20239;-91
2022/01/15 10:08:58;;;;;;;0.90;0.70;;;5.90;99.90;;;;;;4965649;28;20441;-90
2022/01/15 10:11:46;;;;;;;0.90;0.80;;;5.80;99.90;;;;;;4955780;28;20445;-90
2022/01/15 10:14:33;;;;;;;0.80;0.63;;;5.90;99.90;;;;;;4973170;28;20444;-89
2022/01/15 10:17:00;;;;;;;0.80;0.60;;;6.00;99.90;;;;;;4990819;28;20583;-88
2022/01/15 10:19:36;;;;;;;0.80;0.60;;;6.10;99.90;;;;;;4954079;28;20460;-89
2022/01/15 10:22:19;;;;;;;0.80;0.60;;;6.10;99.90;;;;;;4971005;28;20441;-88
2022/01/15 10:25:03;;;;;;;0.80;0.70;;;6.30;99.90;;;;;;4962203;28;20472;-88
2022/01/15 10:27:30;;;;;;;1.40;0.97;;;6.50;99.90;;;;;;4972120;28;20473;-88
2022/01/15 10:30:08;;;;;;;0.80;0.70;;;6.70;99.90;;;;;;4972635;28;20480;-88
2022/01/15 10:32:37;;;;;;;0.87;0.70;;;6.90;99.90;;;;;;4954344;28;20445;-89
2022/01/15 10:35:11;;;;;;;0.80;0.60;;;7.10;99.90;;;;;;4972718;28;20476;-89
2022/01/15 10:37:56;;;;;;;1.10;1.00;;;7.10;99.90;;;;;;4954585;28;20485;-85
2022/01/15 10:40:25;;;;;;;1.30;1.17;;;7.30;99.90;;;;;;4968143;28;20924;-87
2022/01/15 10:42:56;;;;;;;0.80;0.60;;;7.50;99.90;;;;;;4973367;28;20481;-90
2022/01/15 10:45:25;;;;;;;2.97;0.93;;;7.80;99.90;;;;;;4970441;28;20448;-87
2022/01/15 10:47:53;;;;;;;0.90;0.60;;;7.80;99.90;;;;;;4964116;28;20445;-86
2022/01/15 10:50:37;;;;;;;0.87;0.60;;;8.00;99.90;;;;;;4970141;28;20441;-87
2022/01/15 10:53:11;;;;;;;0.90;0.60;;;7.90;99.90;;;;;;4962846;28;20505;-86
2022/01/15 10:55:38;;;;;;;0.80;0.60;;;8.00;99.90;;;;;;4961847;28;20441;-86
2022/01/15 10:58:06;;;;;;;0.80;0.60;;;8.20;99.90;;;;;;4955397;28;21036;-87
2022/01/15 11:00:45;;;;;;;0.80;0.60;;;8.50;99.90;;;;;;4959535;28;20590;-86
2022/01/15 11:03:17;;;;;;;1.57;0.83;;;8.40;99.90;;;;;;4947923;28;20490;-86
2022/01/15 11:05:48;;;;;;;0.80;0.60;;;8.20;99.90;;;;;;4966893;28;20444;-86
2022/01/15 11:08:23;;;;;;;0.80;0.60;;;8.10;99.90;;;;;;4951543;28;20457;-86
2022/01/15 11:10:51;;;;;;;0.80;0.60;;;8.20;99.90;;;;;;4968040;28;20440;-86
2022/01/15 11:13:37;;;;;;;0.80;0.60;;;8.30;99.90;;;;;;4953373;28;20540;-86
2022/01/15 11:16:14;;;;;;;0.87;0.60;;;8.20;99.90;;;;;;4962002;28;20524;-86
2022/01/15 11:18:44;;;;;;;0.90;0.60;;;8.40;99.90;;;;;;4969194;28;21000;-86
2022/01/15 11:21:13;;;;;;;0.80;0.60;;;8.50;99.90;;;;;;4956010;28;20489;-86
2022/01/15 11:23:40;;;;;;;0.90;0.60;;;7.90;99.90;;;;;;4969290;28;21012;-88
2022/01/15 11:26:08;;;;;;;0.80;0.60;;;7.90;99.90;;;;;;4985722;28;20567;-88
2022/01/15 11:28:34;;;;;;;0.90;0.70;;;7.30;99.90;;;;;;4971766;28;20453;-88
2022/01/15 11:31:05;;;;;;;0.80;0.60;;;7.50;99.90;;;;;;4970521;28;20937;-88
2022/01/15 11:33:38;;;;;;;0.90;0.70;;;7.90;99.90;;;;;;4966092;28;20191;-88
2022/01/15 11:36:05;;;;;;;3.77;2.40;;;8.00;99.90;;;;;;4943406;29;20962;-87
2022/01/15 11:38:36;;;;;;;0.80;0.60;;;8.00;99.90;;;;;;4951319;28;20820;-86
2022/01/15 11:41:02;;;;;;;0.80;0.60;;;8.20;99.90;;;;;;4965896;28;20800;-86
2022/01/15 11:43:35;;;;;;;0.80;0.60;;;8.10;99.90;;;;;;4952378;28;20453;-86
2022/01/15 11:46:44;;;;;;;4.87;0.83;;;7.90;99.90;;;;;;4951830;28;20274;-89
2022/01/15 11:49:34;;;;;;;1.90;1.70;;;8.30;99.90;;;;;;4968969;28;20992;-86
2022/01/15 11:52:09;;;;;;;0.90;0.80;;;8.30;99.90;;;;;;4990147;28;20523;-86
2022/01/15 11:54:36;;;;;;;0.80;0.50;;;8.00;99.90;;;;;;4969062;28;20491;-87
2022/01/15 11:57:03;;;;;;;0.80;0.50;;;8.40;99.90;;;;;;4966594;28;20473;-87
2022/01/15 11:59:28;;;;;;;0.90;0.70;;;8.30;99.90;;;;;;4976399;28;21179;-86
2022/01/15 12:01:56;;;;;;;0.83;0.60;;;8.20;99.90;;;;;;4969689;28;20458;-86
2022/01/15 12:04:33;;;;;;;0.80;0.60;;;8.50;99.90;;;;;;4948976;28;20202;-87
2022/01/15 12:07:04;;;;;;;0.80;0.57;;;8.40;99.90;;;;;;4977776;28;20450;-87
2022/01/15 12:09:36;;;;;;;0.80;0.60;;;8.40;99.90;;;;;;4965529;28;20539;-87
2022/01/15 12:12:30;;;;;;;0.83;0.60;;;8.30;99.90;;;;;;4962292;28;20450;-87
2022/01/15 12:14:56;;;;;;;0.87;0.60;;;8.40;99.90;;;;;;4978701;28;20452;-87
2022/01/15 12:17:38;;;;;;;0.90;0.70;;;9.00;99.90;;;;;;4983123;28;20467;-87
2022/01/15 12:20:21;;;;;;;0.83;0.60;;;9.10;99.90;;;;;;4959491;28;20659;-87
2022/01/15 12:22:48;;;;;;;0.93;0.67;;;8.90;99.90;;;;;;4967850;28;20545;-87
2022/01/15 12:25:17;;;;;;;0.90;0.60;;;9.00;99.90;;;;;;4966671;28;20449;-87
2022/01/15 12:28:04;;;;;;;0.80;0.50;;;9.30;99.90;;;;;;4957842;28;20582;-89
2022/01/15 12:30:34;;;;;;;24.60;1.57;;;9.40;99.90;;;;;;4958290;28;20536;-88
2022/01/15 12:33:02;;;;;;;0.87;0.50;;;9.60;99.90;;;;;;4953205;28;20496;-90
2022/01/15 12:35:32;;;;;;;0.90;0.50;;;9.60;99.90;;;;;;4960414;28;20445;-90
2022/01/15 12:38:01;;;;;;;0.90;0.50;;;9.50;99.90;;;;;;4961080;28;20572;-87
2022/01/15 12:40:43;;;;;;;0.90;0.50;;;9.40;99.90;;;;;;4962758;28;20444;-89
2022/01/15 12:43:16;;;;;;;0.87;0.50;;;10.00;99.90;;;;;;4960665;28;20454;-87
2022/01/15 12:45:42;;;;;;;0.90;0.50;;;10.20;99.90;;;;;;4957102;28;20956;-88
2022/01/15 12:48:15;;;;;;;0.87;0.50;;;10.30;99.90;;;;;;4951603;28;20485;-88
2022/01/15 12:50:43;;;;;;;0.90;0.50;;;10.40;99.90;;;;;;4965341;28;20487;-88
2022/01/15 12:53:12;;;;;;;0.90;0.50;;;10.30;99.90;;;;;;4967491;28;20445;-88
2022/01/15 12:55:39;;;;;;;1.00;0.70;;;10.10;99.90;;;;;;4953902;28;21317;-88
2022/01/15 12:58:07;;;;;;;0.90;0.50;;;10.10;99.90;;;;;;4957899;28;20489;-88
2022/01/15 13:00:35;;;;;;;1.10;0.93;;;10.30;99.90;;;;;;4955148;28;20433;-88
2022/01/15 13:03:07;;;;;;;0.90;0.50;;;10.10;99.90;;;;;;4982584;28;20445;-88
2022/01/15 13:05:36;;;;;;;0.90;0.50;;;10.00;99.90;;;;;;4969603;28;20437;-88
2022/01/15 13:08:21;;;;;;;0.90;0.50;;;10.30;99.90;;;;;;4956806;28;20907;-88
2022/01/15 13:10:55;;;;;;;0.87;0.50;;;10.30;99.90;;;;;;4960151;28;20440;-86
2022/01/15 13:13:38;;;;;;;0.80;0.50;;;10.30;99.90;;;;;;4960644;28;20555;-89
2022/01/15 13:16:10;;;;;;;0.90;0.50;;;10.10;99.90;;;;;;4957854;28;21013;-87
2022/01/15 13:18:43;;;;;;;0.90;0.60;;;9.90;99.90;;;;;;4960873;28;20493;-88
2022/01/15 13:21:15;;;;;;;0.90;0.60;;;9.20;99.90;;;;;;4977808;28;21231;-86
2022/01/15 13:23:50;;;;;;;0.90;0.60;;;8.60;99.90;;;;;;4971195;28;20453;-86
2022/01/15 13:26:29;;;;;;;0.90;0.60;;;8.50;99.90;;;;;;4960138;28;20485;-86
2022/01/15 13:29:09;;;;;;;0.90;0.60;;;8.70;99.90;;;;;;4953866;28;20853;-86